Time;durP1;ratioP1;P1;durP2;ratioP2;P2;SDS_P1;SDS_P2;PMS_P1;PMS_P2;Temp;Humidity;BMP_temperature;BMP_pressure;BME280_temperature;BME280_humidity;BME280_pressure;Samples;Min_cycle;Max_cycle;Signal;HPM_P1;HPM_P2
2022/09/30 00:02:31;;;;;;;21.90;4.68;;;15.70;99.90;;;;;;5075107;28;20023;-71
2022/09/30 00:04:59;;;;;;;19.13;4.40;;;15.80;99.90;;;;;;5075501;28;20446;-72
2022/09/30 00:07:26;;;;;;;19.15;5.05;;;15.80;99.90;;;;;;5073912;28;20031;-71
2022/09/30 00:09:53;;;;;;;15.50;3.95;;;16.00;99.90;;;;;;5075337;28;20039;-71
2022/09/30 00:12:21;;;;;;;20.10;4.30;;;16.10;99.90;;;;;;5075301;28;20075;-72
2022/09/30 00:14:48;;;;;;;19.40;4.10;;;16.40;99.90;;;;;;5075260;28;20591;-73
2022/09/30 00:17:15;;;;;;;20.20;4.18;;;16.80;99.90;;;;;;5074614;28;20032;-73
2022/09/30 00:19:43;;;;;;;27.75;4.78;;;17.10;99.90;;;;;;5074023;28;20024;-73
2022/09/30 00:22:10;;;;;;;19.38;3.55;;;17.50;99.90;;;;;;5072249;28;20035;-72
2022/09/30 00:24:37;;;;;;;14.93;3.05;;;17.40;99.90;;;;;;5073498;28;20036;-71
2022/09/30 00:27:04;;;;;;;16.00;3.65;;;17.40;99.90;;;;;;5073619;28;20024;-72
2022/09/30 00:29:32;;;;;;;13.88;3.30;;;17.80;99.90;;;;;;5074921;28;20103;-71
2022/09/30 00:31:59;;;;;;;13.60;2.85;;;17.80;99.90;;;;;;5075024;28;20561;-71
2022/09/30 00:34:27;;;;;;;14.40;2.83;;;17.70;99.90;;;;;;5074944;28;20025;-71
2022/09/30 00:36:55;;;;;;;12.05;2.92;;;18.00;99.90;;;;;;5074911;28;20025;-70
2022/09/30 00:39:27;;;;;;;13.75;3.33;;;18.00;99.90;;;;;;5074878;28;20020;-70
2022/09/30 00:42:00;;;;;;;13.48;2.78;;;18.20;99.90;;;;;;5073572;28;20020;-70
2022/09/30 00:44:46;;;;;;;17.48;3.67;;;18.50;99.90;;;;;;5074682;28;20064;-71
2022/09/30 00:47:38;;;;;;;13.07;2.70;;;18.50;99.90;;;;;;5074840;28;20090;-70
2022/09/30 00:50:22;;;;;;;13.65;2.78;;;18.20;99.90;;;;;;5074855;28;20490;-71
2022/09/30 00:53:13;;;;;;;14.32;3.55;;;18.00;99.90;;;;;;5073356;28;20051;-70
2022/09/30 00:56:10;;;;;;;15.07;3.17;;;18.10;99.90;;;;;;5074697;28;20069;-69
2022/09/30 00:58:56;;;;;;;15.48;3.35;;;18.20;99.90;;;;;;5073093;28;20029;-70
2022/09/30 01:01:24;;;;;;;13.45;3.42;;;18.50;99.90;;;;;;5074777;28;20025;-70
2022/09/30 01:04:02;;;;;;;22.58;3.55;;;18.30;99.90;;;;;;5073031;28;20028;-70
2022/09/30 01:06:30;;;;;;;13.45;3.08;;;18.30;99.90;;;;;;5073435;28;20066;-70
2022/09/30 01:08:57;;;;;;;13.00;3.25;;;18.80;99.90;;;;;;5074728;28;20020;-70
2022/09/30 01:11:27;;;;;;;17.25;3.72;;;18.80;99.90;;;;;;5074044;28;20028;-72
2022/09/30 01:14:04;;;;;;;15.15;2.67;;;18.10;99.90;;;;;;5074229;28;20021;-71
2022/09/30 01:16:55;;;;;;;13.25;2.67;;;17.20;99.90;;;;;;5074213;28;20048;-71
2022/09/30 01:20:05;;;;;;;15.82;3.00;;;17.00;99.90;;;;;;5072900;28;20024;-70
2022/09/30 01:22:36;;;;;;;17.08;3.25;;;17.20;99.90;;;;;;5074035;28;20027;-70
2022/09/30 01:25:41;;;;;;;14.10;3.70;;;17.30;99.90;;;;;;5074484;28;20100;-70
2022/09/30 01:28:35;;;;;;;11.27;3.05;;;17.60;99.90;;;;;;5073897;28;20365;-70
2022/09/30 01:31:23;;;;;;;18.17;3.45;;;17.70;99.90;;;;;;5073221;28;20024;-72
2022/09/30 01:34:08;;;;;;;12.52;2.40;;;18.00;99.90;;;;;;5073051;28;20020;-71
2022/09/30 01:37:04;;;;;;;15.50;2.65;;;18.10;99.90;;;;;;5072254;28;20028;-72
2022/09/30 01:40:10;;;;;;;15.85;4.05;;;18.10;99.90;;;;;;5071778;28;20047;-72
2022/09/30 01:43:05;;;;;;;15.98;3.35;;;17.80;99.90;;;;;;5069877;28;20052;-71
2022/09/30 01:45:43;;;;;;;17.50;3.05;;;17.70;99.90;;;;;;5070741;28;20021;-72
2022/09/30 01:48:20;;;;;;;12.82;2.53;;;17.70;99.90;;;;;;5071052;28;20070;-69
2022/09/30 01:50:53;;;;;;;15.60;3.15;;;17.40;99.90;;;;;;5073258;28;20091;-69
2022/09/30 01:53:40;;;;;;;16.00;3.10;;;17.40;99.90;;;;;;5073636;28;20052;-69
2022/09/30 01:56:45;;;;;;;16.02;3.13;;;17.70;99.90;;;;;;5072072;28;20029;-67
2022/09/30 01:59:21;;;;;;;12.98;2.90;;;17.80;99.90;;;;;;5064611;28;20037;-66
2022/09/30 02:02:01;;;;;;;11.98;2.42;;;17.80;99.90;;;;;;5073359;28;20020;-66
2022/09/30 02:04:42;;;;;;;23.98;3.95;;;17.70;99.90;;;;;;5073384;28;20020;-67
2022/09/30 02:07:13;;;;;;;;;;;17.60;99.90;;;;;;5073728;28;20108;-67
2022/09/30 02:09:51;;;;;;;18.48;4.30;;;17.40;99.90;;;;;;5073276;28;19951;-67
2022/09/30 02:12:22;;;;;;;13.07;2.83;;;16.80;99.90;;;;;;5071878;28;20103;-67
2022/09/30 02:14:52;;;;;;;;;;;16.60;99.90;;;;;;5073663;28;20183;-67
2022/09/30 02:17:47;;;;;;;13.15;2.92;;;16.60;99.90;;;;;;5072858;28;20287;-67
2022/09/30 02:20:24;;;;;;;14.07;2.78;;;16.70;99.90;;;;;;5071794;28;20028;-67
2022/09/30 02:23:02;;;;;;;15.02;3.53;;;16.70;99.90;;;;;;5072750;28;20032;-68
2022/09/30 02:25:35;;;;;;;12.70;2.75;;;16.80;99.90;;;;;;5073027;28;20021;-67
2022/09/30 02:28:06;;;;;;;10.32;2.53;;;17.10;99.90;;;;;;5073091;28;20020;-67
2022/09/30 02:30:35;;;;;;;;;;;17.40;99.90;;;;;;5073350;28;20095;-64
2022/09/30 02:33:10;;;;;;;13.73;2.83;;;18.10;99.90;;;;;;5072939;28;19904;-64
2022/09/30 02:35:47;;;;;;;8.90;2.17;;;18.80;99.90;;;;;;5072933;28;20107;-67
2022/09/30 02:38:37;;;;;;;10.57;2.58;;;18.90;99.90;;;;;;5072945;28;20029;-68
2022/09/30 02:41:17;;;;;;;9.50;2.65;;;19.00;99.90;;;;;;5072398;28;20392;-68
2022/09/30 02:43:44;;;;;;;13.80;3.00;;;19.60;99.90;;;;;;5069939;28;20060;-68
2022/09/30 02:46:43;;;;;;;8.52;2.20;;;19.20;99.90;;;;;;5072736;28;20095;-68
2022/09/30 02:49:31;;;;;;;9.80;2.53;;;18.60;99.90;;;;;;5072817;28;20021;-70
2022/09/30 02:52:10;;;;;;;10.77;2.53;;;18.20;99.90;;;;;;5071442;28;20027;-68
2022/09/30 02:54:43;;;;;;;8.27;2.33;;;18.10;99.90;;;;;;5072762;28;20220;-68
2022/09/30 02:57:33;;;;;;;10.85;2.85;;;18.10;99.90;;;;;;5072423;28;20095;-68
2022/09/30 03:00:01;;;;;;;10.90;2.50;;;18.20;99.90;;;;;;5070703;28;20028;-68
2022/09/30 03:02:28;;;;;;;11.80;2.45;;;18.30;99.90;;;;;;5072035;28;20028;-68
2022/09/30 03:04:56;;;;;;;13.18;2.60;;;18.60;99.90;;;;;;5071376;28;20024;-68
2022/09/30 03:07:23;;;;;;;13.45;2.38;;;18.60;99.90;;;;;;5072667;28;20367;-67
2022/09/30 03:09:57;;;;;;;13.43;2.97;;;18.50;99.90;;;;;;5072633;28;20025;-68
2022/09/30 03:12:41;;;;;;;12.57;2.95;;;18.40;99.90;;;;;;5072553;28;20100;-68
2022/09/30 03:15:29;;;;;;;11.20;3.03;;;17.80;99.90;;;;;;5071625;28;20023;-68
2022/09/30 03:18:16;;;;;;;14.80;3.22;;;17.70;99.90;;;;;;5072631;28;20025;-68
2022/09/30 03:21:14;;;;;;;12.27;2.95;;;17.40;99.90;;;;;;5071574;28;20012;-69
2022/09/30 03:24:10;;;;;;;10.38;2.75;;;17.10;99.90;;;;;;5072484;28;20074;-69
2022/09/30 03:26:51;;;;;;;11.18;2.90;;;17.10;99.90;;;;;;5072782;28;20581;-69
2022/09/30 03:29:44;;;;;;;12.15;2.88;;;17.00;99.90;;;;;;5073116;28;20562;-68
2022/09/30 03:32:37;;;;;;;12.07;2.22;;;17.00;99.90;;;;;;5074922;28;20500;-67
2022/09/30 03:35:30;;;;;;;9.90;2.17;;;17.10;99.90;;;;;;5047920;28;20107;-67
2022/09/30 03:38:03;;;;;;;11.95;2.85;;;17.40;99.90;;;;;;5075927;28;20025;-68
2022/09/30 03:40:51;;;;;;;13.57;2.55;;;17.80;99.90;;;;;;5076091;28;20027;-67
2022/09/30 03:43:46;;;;;;;11.35;2.25;;;17.70;99.90;;;;;;5068302;28;20052;-66
2022/09/30 03:46:50;;;;;;;11.25;2.22;;;17.80;99.90;;;;;;5075906;28;20472;-66
2022/09/30 03:49:31;;;;;;;10.15;2.20;;;18.10;99.90;;;;;;5054680;28;20039;-67
2022/09/30 03:51:59;;;;;;;;;;;18.70;99.90;;;;;;5076405;28;20021;-68
2022/09/30 03:54:26;;;;;;;10.63;2.05;;;18.80;99.90;;;;;;5074262;28;19912;-68
2022/09/30 03:56:53;;;;;;;12.95;2.78;;;18.80;99.90;;;;;;5075185;28;20367;-69
2022/09/30 03:59:29;;;;;;;10.45;2.08;;;18.90;99.90;;;;;;5073572;28;20135;-69
2022/09/30 04:01:57;;;;;;;12.15;2.28;;;18.70;99.90;;;;;;5074819;28;20109;-69
2022/09/30 04:04:24;;;;;;;14.25;3.10;;;18.60;99.90;;;;;;5074019;28;20383;-69
2022/09/30 04:06:51;;;;;;;12.13;1.92;;;19.20;99.90;;;;;;5074053;28;20537;-69
2022/09/30 04:09:19;;;;;;;9.85;2.28;;;19.20;99.90;;;;;;5074740;28;20047;-68
2022/09/30 04:11:46;;;;;;;10.38;2.70;;;19.40;99.90;;;;;;5075521;28;20074;-68
2022/09/30 04:14:13;;;;;;;9.13;1.80;;;19.90;99.90;;;;;;5075352;28;20168;-69
2022/09/30 04:16:41;;;;;;;5.70;1.50;;;19.50;99.90;;;;;;5075221;28;20128;-70
2022/09/30 04:19:09;;;;;;;7.00;1.45;;;19.00;99.90;;;;;;5072761;28;20082;-69
2022/09/30 04:21:36;;;;;;;7.63;1.85;;;19.30;99.90;;;;;;5074729;28;20063;-70
2022/09/30 04:24:03;;;;;;;7.30;1.60;;;19.50;99.90;;;;;;5074970;28;20048;-67
2022/09/30 04:26:31;;;;;;;6.13;1.70;;;19.30;99.90;;;;;;5073872;28;20387;-68
2022/09/30 04:28:58;;;;;;;7.60;1.48;;;19.60;99.90;;;;;;5074863;28;20055;-68
2022/09/30 04:31:25;;;;;;;6.85;1.70;;;19.80;99.90;;;;;;5075199;28;20028;-69
2022/09/30 04:33:55;;;;;;;6.22;1.30;;;19.50;99.90;;;;;;5074917;28;20542;-68
2022/09/30 04:36:23;;;;;;;5.80;1.20;;;19.90;99.90;;;;;;5074962;28;20078;-68
2022/09/30 04:38:52;;;;;;;5.63;1.35;;;19.90;99.90;;;;;;5074899;28;20025;-68
2022/09/30 04:41:20;;;;;;;5.53;1.08;;;19.90;99.90;;;;;;5071764;28;20120;-68
2022/09/30 04:43:48;;;;;;;8.15;1.38;;;19.70;99.90;;;;;;5074563;28;20137;-68
2022/09/30 04:46:17;;;;;;;3.40;1.30;;;19.70;99.90;;;;;;5074825;28;20028;-68
2022/09/30 04:48:46;;;;;;;8.45;1.73;;;20.00;99.90;;;;;;5074687;28;20380;-68
2022/09/30 04:51:15;;;;;;;6.70;1.17;;;20.30;99.90;;;;;;5074607;28;20021;-68
2022/09/30 04:53:43;;;;;;;9.23;1.67;;;20.20;99.90;;;;;;5074784;28;20111;-68
2022/09/30 04:56:11;;;;;;;4.68;1.75;;;20.30;99.90;;;;;;5074478;28;20061;-67
2022/09/30 04:58:39;;;;;;;12.45;1.67;;;19.90;99.90;;;;;;5074136;28;20028;-68
2022/09/30 05:01:11;;;;;;;6.95;1.23;;;19.30;99.90;;;;;;5072926;28;20100;-68
2022/09/30 05:03:39;;;;;;;5.63;1.38;;;19.30;99.90;;;;;;5074030;28;20444;-68
2022/09/30 05:06:07;;;;;;;4.80;1.00;;;19.40;99.90;;;;;;5073793;28;20017;-69
2022/09/30 05:08:35;;;;;;;5.95;1.33;;;19.80;99.90;;;;;;5073257;28;20833;-68
2022/09/30 05:11:09;;;;;;;6.82;1.85;;;19.70;99.90;;;;;;5073972;28;20016;-68
2022/09/30 05:13:39;;;;;;;6.85;1.20;;;19.50;99.90;;;;;;5074308;28;20460;-68
2022/09/30 05:16:08;;;;;;;8.23;1.42;;;19.30;99.90;;;;;;5074076;28;20073;-69
2022/09/30 05:18:36;;;;;;;8.18;1.50;;;19.30;99.90;;;;;;5072537;28;20111;-68
2022/09/30 05:21:04;;;;;;;9.85;2.08;;;19.30;99.90;;;;;;5073779;28;20020;-68
2022/09/30 05:23:32;;;;;;;5.28;1.15;;;19.00;99.90;;;;;;5073884;28;20024;-68
2022/09/30 05:26:02;;;;;;;7.15;1.58;;;19.10;99.90;;;;;;5073706;28;20025;-68
2022/09/30 05:28:32;;;;;;;5.35;1.70;;;18.90;99.90;;;;;;5073614;28;20019;-67
2022/09/30 05:31:07;;;;;;;6.78;1.58;;;18.60;99.90;;;;;;5073715;28;20025;-67
2022/09/30 05:33:35;;;;;;;8.27;1.40;;;18.30;99.90;;;;;;5072489;28;20123;-68
2022/09/30 05:36:08;;;;;;;8.18;2.28;;;18.30;99.90;;;;;;5072366;28;20051;-70
2022/09/30 05:38:35;;;;;;;6.07;1.23;;;18.20;99.90;;;;;;5073512;28;20033;-69
2022/09/30 05:41:12;;;;;;;7.28;1.52;;;18.20;99.90;;;;;;5071623;28;20017;-68
2022/09/30 05:43:44;;;;;;;5.15;1.10;;;18.10;99.90;;;;;;5073351;28;20040;-68
2022/09/30 05:46:11;;;;;;;5.13;1.02;;;18.00;99.90;;;;;;5073570;28;20021;-68
2022/09/30 05:48:39;;;;;;;6.55;1.40;;;17.90;99.90;;;;;;5072088;28;20023;-68
2022/09/30 05:51:06;;;;;;;6.90;1.30;;;18.20;99.90;;;;;;5072203;28;20021;-68
2022/09/30 05:53:40;;;;;;;3.95;1.00;;;18.10;99.90;;;;;;5073052;28;20051;-68
2022/09/30 05:56:08;;;;;;;6.20;1.20;;;18.00;99.90;;;;;;5073368;28;20396;-68
2022/09/30 05:58:39;;;;;;;4.60;1.10;;;18.00;99.90;;;;;;5073548;28;20021;-69
2022/09/30 06:01:14;;;;;;;4.07;0.95;;;18.00;99.90;;;;;;5072080;28;20032;-68
2022/09/30 06:03:46;;;;;;;5.35;1.30;;;18.00;99.90;;;;;;5073481;28;20089;-68
2022/09/30 06:06:14;;;;;;;4.72;1.20;;;18.20;99.90;;;;;;5073269;28;20354;-68
2022/09/30 06:08:42;;;;;;;9.10;1.60;;;18.30;99.90;;;;;;5073181;28;20418;-68
2022/09/30 06:11:15;;;;;;;5.15;1.30;;;18.10;99.90;;;;;;5073162;28;20032;-68
2022/09/30 06:13:44;;;;;;;5.97;1.30;;;18.00;99.90;;;;;;5073079;28;20027;-68
2022/09/30 06:16:12;;;;;;;6.70;1.20;;;17.80;99.90;;;;;;5071867;28;20029;-68
2022/09/30 06:18:41;;;;;;;8.98;1.73;;;17.80;99.90;;;;;;5071730;28;20383;-68
2022/09/30 06:21:11;;;;;;;6.57;1.75;;;17.50;99.90;;;;;;5072980;28;20081;-68
2022/09/30 06:23:38;;;;;;;6.28;1.45;;;17.50;99.90;;;;;;5072604;28;20039;-68
2022/09/30 06:26:07;;;;;;;8.60;2.13;;;17.40;99.90;;;;;;5072005;28;20527;-68
2022/09/30 06:28:35;;;;;;;9.02;2.10;;;17.20;99.90;;;;;;5070452;28;20112;-68
2022/09/30 06:31:05;;;;;;;8.85;1.38;;;17.30;99.90;;;;;;5071701;28;20112;-69
2022/09/30 06:33:33;;;;;;;6.82;1.67;;;17.40;99.90;;;;;;5071628;28;20115;-68
2022/09/30 06:36:03;;;;;;;6.93;1.55;;;17.30;99.90;;;;;;5072850;28;20024;-68
2022/09/30 06:38:38;;;;;;;7.57;1.38;;;17.00;99.90;;;;;;5072997;28;20028;-68
2022/09/30 06:41:06;;;;;;;10.35;2.35;;;16.80;99.90;;;;;;5072893;28;20036;-68
2022/09/30 06:43:34;;;;;;;7.30;1.83;;;16.60;99.90;;;;;;5072424;28;20093;-68
2022/09/30 06:46:01;;;;;;;10.10;2.55;;;16.50;99.90;;;;;;5072691;28;20016;-67
2022/09/30 06:48:29;;;;;;;12.50;2.78;;;16.40;99.90;;;;;;5072686;28;20027;-72
2022/09/30 06:50:59;;;;;;;10.05;2.22;;;16.20;99.90;;;;;;5071398;28;20020;-69
2022/09/30 06:53:26;;;;;;;;;;;15.90;99.90;;;;;;5071479;28;20454;-70
2022/09/30 06:55:57;;;;;;;9.60;2.33;;;15.90;99.90;;;;;;5072732;28;20368;-70
2022/09/30 06:58:25;;;;;;;8.02;2.05;;;15.90;99.90;;;;;;5072541;28;20020;-70
2022/09/30 07:01:05;;;;;;;7.72;2.40;;;15.80;99.90;;;;;;5072604;28;20029;-70
2022/09/30 07:03:36;;;;;;;8.73;2.85;;;15.80;99.90;;;;;;5072700;28;20027;-70
2022/09/30 07:06:05;;;;;;;12.85;3.72;;;15.70;99.90;;;;;;5076164;28;20468;-70
2022/09/30 07:08:35;;;;;;;12.00;2.28;;;15.70;99.90;;;;;;5076549;28;20044;-70
2022/09/30 07:11:11;;;;;;;11.05;2.97;;;15.80;99.90;;;;;;5075264;28;20103;-68
2022/09/30 07:13:39;;;;;;;11.68;2.70;;;15.70;99.90;;;;;;5074383;28;20113;-70
2022/09/30 07:16:07;;;;;;;10.82;2.25;;;15.60;99.90;;;;;;5075877;28;20028;-69
2022/09/30 07:18:34;;;;;;;12.57;2.88;;;15.40;99.90;;;;;;5074970;28;20039;-69
2022/09/30 07:21:01;;;;;;;9.50;2.28;;;15.30;99.90;;;;;;5075022;28;20032;-69
2022/09/30 07:23:29;;;;;;;10.98;2.30;;;15.20;99.90;;;;;;5076029;28;20048;-69
2022/09/30 07:26:03;;;;;;;14.13;3.13;;;15.30;99.90;;;;;;5076306;28;20329;-69
2022/09/30 07:28:38;;;;;;;11.38;2.63;;;15.30;99.90;;;;;;5074920;28;20485;-69
2022/09/30 07:31:11;;;;;;;19.05;3.38;;;15.30;99.90;;;;;;5075590;28;20476;-70
2022/09/30 07:33:39;;;;;;;13.52;2.75;;;15.30;99.90;;;;;;5076005;28;20020;-69
2022/09/30 07:36:08;;;;;;;15.85;3.95;;;15.40;99.90;;;;;;5076093;28;20484;-68
2022/09/30 07:38:39;;;;;;;16.63;2.90;;;15.50;99.90;;;;;;5075957;28;20411;-70
2022/09/30 07:41:10;;;;;;;19.15;3.45;;;15.60;99.90;;;;;;5076040;28;20074;-70
2022/09/30 07:43:38;;;;;;;21.70;4.60;;;15.40;99.90;;;;;;5075762;28;20047;-71
2022/09/30 07:46:24;;;;;;;19.50;3.92;;;15.40;99.90;;;;;;5074757;28;20074;-70
2022/09/30 07:48:56;;;;;;;14.02;3.60;;;15.40;99.90;;;;;;5075894;28;20016;-69
2022/09/30 07:51:35;;;;;;;21.17;4.72;;;15.60;99.90;;;;;;5075874;28;20025;-72
2022/09/30 07:54:15;;;;;;;23.60;4.70;;;15.50;99.90;;;;;;5075734;28;20024;-69
2022/09/30 07:56:43;;;;;;;21.05;4.43;;;15.40;99.90;;;;;;5074485;28;20115;-71
2022/09/30 07:59:11;;;;;;;26.63;4.95;;;15.40;99.90;;;;;;5074301;28;20086;-71
2022/09/30 08:01:39;;;;;;;24.42;4.38;;;15.40;99.90;;;;;;5073435;28;20074;-70
2022/09/30 08:04:11;;;;;;;22.92;4.70;;;15.40;99.90;;;;;;5074041;28;20177;-71
2022/09/30 08:06:48;;;;;;;21.90;5.57;;;15.30;99.90;;;;;;5075380;28;20021;-73
2022/09/30 08:09:18;;;;;;;21.52;5.65;;;15.40;99.90;;;;;;5074259;28;20103;-72
2022/09/30 08:11:46;;;;;;;27.75;5.05;;;15.30;99.90;;;;;;5075503;28;20397;-71
2022/09/30 08:14:19;;;;;;;22.52;4.85;;;15.20;99.90;;;;;;5076035;28;20052;-71
2022/09/30 08:16:47;;;;;;;21.88;4.15;;;15.10;99.90;;;;;;5074984;28;20031;-72
2022/09/30 08:19:16;;;;;;;18.52;4.18;;;15.10;99.90;;;;;;5075353;28;20036;-71
2022/09/30 08:21:45;;;;;;;20.75;4.30;;;15.00;99.90;;;;;;5073645;28;20024;-72
2022/09/30 08:24:13;;;;;;;28.20;5.40;;;14.90;99.90;;;;;;5075062;28;20029;-70
2022/09/30 08:26:40;;;;;;;21.63;4.53;;;14.90;99.90;;;;;;5075412;28;20027;-72
2022/09/30 08:29:10;;;;;;;19.60;4.30;;;15.00;99.90;;;;;;5074775;28;20023;-72
2022/09/30 08:31:37;;;;;;;26.95;4.22;;;14.90;99.90;;;;;;5075148;28;20017;-70
2022/09/30 08:34:04;;;;;;;19.02;4.10;;;14.90;99.90;;;;;;5074088;28;20024;-71
2022/09/30 08:36:32;;;;;;;24.70;5.13;;;15.00;99.90;;;;;;5073987;28;20031;-71
2022/09/30 08:38:59;;;;;;;19.38;4.32;;;14.90;99.90;;;;;;5075136;28;20033;-71
2022/09/30 08:42:02;;;;;;;25.58;4.25;;;14.90;99.90;;;;;;5075008;28;20021;-70
2022/09/30 08:44:45;;;;;;;23.63;4.63;;;14.90;99.90;;;;;;5068044;28;20048;-70
2022/09/30 08:47:30;;;;;;;28.17;5.25;;;15.00;99.90;;;;;;5074245;28;20063;-70
2022/09/30 08:50:15;;;;;;;24.05;4.35;;;15.00;99.90;;;;;;5074789;28;20106;-69
2022/09/30 08:52:48;;;;;;;26.77;5.10;;;15.00;99.90;;;;;;5074780;28;20012;-68
2022/09/30 08:55:27;;;;;;;27.33;5.32;;;15.10;99.90;;;;;;5073445;28;20024;-68
2022/09/30 08:57:56;;;;;;;31.27;4.90;;;15.00;99.90;;;;;;5074844;28;20070;-67
2022/09/30 09:00:24;;;;;;;24.35;4.68;;;15.10;99.90;;;;;;5074581;28;20444;-69
2022/09/30 09:03:00;;;;;;;25.02;4.65;;;15.10;99.90;;;;;;5073850;28;20108;-69
2022/09/30 09:05:27;;;;;;;21.25;4.38;;;15.00;99.90;;;;;;5071830;28;20025;-69
2022/09/30 09:08:02;;;;;;;17.73;4.15;;;15.00;99.90;;;;;;5074296;28;20557;-69
2022/09/30 09:10:32;;;;;;;19.08;3.63;;;14.90;99.90;;;;;;5073065;28;20029;-68
2022/09/30 09:13:11;;;;;;;29.00;5.13;;;15.00;99.90;;;;;;5074942;28;20035;-69
2022/09/30 09:16:10;;;;;;;17.05;4.28;;;14.90;99.90;;;;;;5074230;28;20028;-69
2022/09/30 09:19:16;;;;;;;25.65;4.22;;;14.90;99.90;;;;;;5072887;28;20086;-67
2022/09/30 09:21:55;;;;;;;23.48;4.63;;;14.90;99.90;;;;;;5074175;28;20514;-67
2022/09/30 09:24:27;;;;;;;19.35;3.92;;;15.00;99.90;;;;;;5073966;28;20451;-68
2022/09/30 09:26:57;;;;;;;23.25;4.38;;;15.00;99.90;;;;;;5072004;28;20021;-67
2022/09/30 09:29:37;;;;;;;;;;;15.10;99.90;;;;;;5073339;28;20025;-67
2022/09/30 09:32:18;;;;;;;22.58;4.28;;;15.10;99.90;;;;;;5073486;28;20341;-68
2022/09/30 09:34:50;;;;;;;27.90;5.22;;;15.10;99.90;;;;;;5073696;28;20424;-67
2022/09/30 09:40:56;;;;;;;23.58;5.05;;;15.00;99.90;;;;;;5073940;28;20035;-67
2022/09/30 09:43:35;;;;;;;22.08;5.13;;;15.10;99.90;;;;;;5073703;28;20044;-67
2022/09/30 09:46:26;;;;;;;22.40;4.90;;;15.00;99.90;;;;;;5073734;28;20023;-69
2022/09/30 09:49:19;;;;;;;28.88;4.85;;;15.00;99.90;;;;;;5073865;28;20488;-68
2022/09/30 09:52:12;;;;;;;24.27;4.30;;;14.90;99.90;;;;;;5073606;28;20384;-69
2022/09/30 09:54:49;;;;;;;19.45;3.80;;;14.90;99.90;;;;;;5054061;28;20115;-68
2022/09/30 09:57:23;;;;;;;21.00;3.85;;;14.90;99.90;;;;;;5072290;28;20020;-69
2022/09/30 10:03:21;;;;;;;17.83;3.50;;;14.90;99.90;;;;;;5073319;28;20383;-67
2022/09/30 10:06:06;;;;;;;23.25;4.53;;;14.80;99.90;;;;;;5073333;28;20021;-67
2022/09/30 10:08:39;;;;;;;19.05;3.85;;;14.80;99.90;;;;;;5072106;28;20020;-67
2022/09/30 10:11:26;;;;;;;19.67;4.13;;;14.90;99.90;;;;;;5073294;28;20013;-66
2022/09/30 10:13:59;;;;;;;25.58;4.85;;;14.90;99.90;;;;;;5073070;28;20389;-67
2022/09/30 10:16:30;;;;;;;20.23;3.67;;;14.80;99.90;;;;;;5072439;28;20506;-67
2022/09/30 10:18:57;;;;;;;;;;;14.90;99.90;;;;;;5073720;28;20029;-67
2022/09/30 10:21:26;;;;;;;21.80;3.88;;;14.90;99.90;;;;;;5073122;28;19904;-66
2022/09/30 10:23:54;;;;;;;22.63;3.88;;;14.90;99.90;;;;;;5073064;28;20413;-67
2022/09/30 10:26:26;;;;;;;22.90;4.22;;;14.90;99.90;;;;;;5073046;28;20024;-65
2022/09/30 10:28:53;;;;;;;27.25;4.90;;;14.90;99.90;;;;;;5071603;28;20017;-66
2022/09/30 10:31:49;;;;;;;22.63;4.30;;;14.80;99.90;;;;;;5071743;28;20020;-65
2022/09/30 10:34:31;;;;;;;21.60;4.05;;;14.80;99.90;;;;;;5071865;28;20037;-65
2022/09/30 10:37:02;;;;;;;19.13;4.47;;;14.70;99.90;;;;;;5071709;28;20029;-66
2022/09/30 10:39:39;;;;;;;17.05;3.67;;;14.60;99.90;;;;;;5072859;28;20048;-65
2022/09/30 10:42:27;;;;;;;24.85;4.03;;;14.50;99.90;;;;;;5072979;28;20074;-65
2022/09/30 10:45:18;;;;;;;21.00;3.63;;;14.40;99.90;;;;;;5072935;28;20033;-65
2022/09/30 10:47:50;;;;;;;13.48;3.17;;;14.40;99.90;;;;;;5073055;28;20021;-65
2022/09/30 10:50:23;;;;;;;17.80;3.35;;;14.40;99.90;;;;;;5072918;28;20024;-65
2022/09/30 10:52:58;;;;;;;20.08;3.10;;;14.40;99.90;;;;;;5072835;28;20488;-65
2022/09/30 10:55:34;;;;;;;20.17;3.50;;;14.40;99.90;;;;;;5073161;28;20105;-65
2022/09/30 10:58:19;;;;;;;17.88;3.78;;;14.50;99.90;;;;;;5072704;28;20020;-65
2022/09/30 11:00:53;;;;;;;19.48;3.50;;;14.50;99.90;;;;;;5071736;28;20078;-64
2022/09/30 11:03:35;;;;;;;20.92;3.30;;;14.50;99.90;;;;;;5072729;28;20024;-64
2022/09/30 11:06:04;;;;;;;19.23;4.55;;;14.60;99.90;;;;;;5071433;28;20024;-64
2022/09/30 11:08:49;;;;;;;25.75;4.45;;;14.60;99.90;;;;;;5072693;28;20094;-65
2022/09/30 11:11:46;;;;;;;25.60;4.72;;;14.60;99.90;;;;;;5073062;28;20476;-65
2022/09/30 11:14:19;;;;;;;20.67;3.35;;;14.70;99.90;;;;;;5070666;28;20085;-65
2022/09/30 11:17:02;;;;;;;16.45;3.00;;;14.70;99.90;;;;;;5072694;28;20025;-65
2022/09/30 11:19:43;;;;;;;20.48;4.13;;;14.80;99.90;;;;;;5072845;28;20464;-65
2022/09/30 11:22:29;;;;;;;14.52;3.28;;;14.90;99.90;;;;;;5070650;28;20021;-66
2022/09/30 11:24:57;;;;;;;20.13;3.38;;;14.90;99.90;;;;;;5072113;28;20021;-65
2022/09/30 11:27:48;;;;;;;18.63;3.47;;;15.00;99.90;;;;;;5072700;28;20472;-66
2022/09/30 11:30:43;;;;;;;18.58;3.90;;;14.90;99.90;;;;;;5072689;28;20040;-65
2022/09/30 11:33:44;;;;;;;30.77;4.25;;;14.90;99.90;;;;;;5072420;28;20035;-64
2022/09/30 11:36:27;;;;;;;20.08;3.38;;;15.00;99.90;;;;;;5072762;28;20029;-65
2022/09/30 11:39:00;;;;;;;21.20;3.40;;;15.00;99.90;;;;;;5072745;28;20069;-65
2022/09/30 11:41:43;;;;;;;20.33;3.55;;;14.90;99.90;;;;;;5072496;28;20032;-65
2022/09/30 11:44:30;;;;;;;21.77;3.55;;;14.90;99.90;;;;;;5070792;28;20083;-65
2022/09/30 11:47:09;;;;;;;19.67;3.78;;;14.80;99.90;;;;;;5071023;28;20500;-66
2022/09/30 11:50:10;;;;;;;14.60;3.33;;;14.70;99.90;;;;;;5071066;28;20024;-65
2022/09/30 11:53:13;;;;;;;16.33;3.42;;;14.70;99.90;;;;;;5075879;28;20411;-65
2022/09/30 11:56:08;;;;;;;19.90;2.95;;;14.70;99.90;;;;;;5075928;28;20021;-67
2022/09/30 11:58:42;;;;;;;17.35;3.90;;;14.60;99.90;;;;;;5076026;28;20051;-65
2022/09/30 12:01:37;;;;;;;18.23;3.83;;;14.60;99.90;;;;;;5075906;28;20021;-65
2022/09/30 12:04:28;;;;;;;17.98;3.65;;;14.60;99.90;;;;;;5075778;28;20542;-66
2022/09/30 12:07:08;;;;;;;;;;;14.40;99.90;;;;;;5076241;28;20096;-66
2022/09/30 12:09:43;;;;;;;23.70;3.90;;;14.50;99.90;;;;;;5075811;28;20344;-66
2022/09/30 12:12:13;;;;;;;20.00;2.97;;;14.40;99.90;;;;;;5074497;28;20438;-65
2022/09/30 12:15:01;;;;;;;14.75;3.08;;;14.40;99.90;;;;;;5075532;28;20528;-66
2022/09/30 12:17:46;;;;;;;17.58;2.95;;;14.30;99.90;;;;;;5074296;28;20514;-66
2022/09/30 12:20:53;;;;;;;20.15;3.25;;;14.30;99.90;;;;;;5075581;28;20476;-66
2022/09/30 12:23:24;;;;;;;21.15;3.45;;;14.20;99.90;;;;;;5069767;28;20041;-66
2022/09/30 12:25:58;;;;;;;17.67;3.22;;;14.30;99.90;;;;;;5075755;28;20024;-65
2022/09/30 12:31:34;;;;;;;17.10;3.17;;;14.30;99.90;;;;;;5075518;28;20023;-65
2022/09/30 12:34:06;;;;;;;17.75;3.50;;;14.30;99.90;;;;;;5075397;28;20082;-67
2022/09/30 12:36:55;;;;;;;15.00;2.92;;;14.20;99.90;;;;;;5075218;28;20024;-65
2022/09/30 12:39:47;;;;;;;17.30;3.05;;;14.20;99.90;;;;;;5075264;28;20369;-66
2022/09/30 12:42:37;;;;;;;19.98;3.00;;;14.20;99.90;;;;;;5075239;28;20032;-67
2022/09/30 12:45:38;;;;;;;15.73;2.60;;;14.10;99.90;;;;;;5074973;28;20029;-66
2022/09/30 12:48:14;;;;;;;18.75;3.83;;;14.10;99.90;;;;;;5075324;28;20020;-66
2022/09/30 12:50:56;;;;;;;12.25;2.85;;;14.10;99.90;;;;;;5075274;28;20024;-66
2022/09/30 12:53:34;;;;;;;16.92;3.20;;;14.00;99.90;;;;;;5074986;28;20103;-66
2022/09/30 12:56:08;;;;;;;16.60;2.92;;;14.10;99.90;;;;;;5073615;28;20078;-66
2022/09/30 12:58:51;;;;;;;15.52;2.38;;;14.10;99.90;;;;;;5073029;28;20013;-67
2022/09/30 13:01:31;;;;;;;14.77;3.13;;;14.20;99.90;;;;;;5072826;28;20021;-66
2022/09/30 13:03:58;;;;;;;16.90;3.03;;;14.30;99.90;;;;;;5073353;28;20388;-66
2022/09/30 13:06:27;;;;;;;16.98;2.85;;;14.30;99.90;;;;;;5074631;28;20044;-66
2022/09/30 13:09:06;;;;;;;16.15;3.17;;;14.40;99.90;;;;;;5074623;28;20021;-66
2022/09/30 13:11:36;;;;;;;18.27;3.45;;;14.40;99.90;;;;;;5074631;28;20070;-66
2022/09/30 13:14:12;;;;;;;15.48;3.00;;;14.40;99.90;;;;;;5074372;28;20024;-66
2022/09/30 13:17:06;;;;;;;23.30;3.55;;;14.40;99.90;;;;;;5074443;28;20055;-66
2022/09/30 13:19:44;;;;;;;20.83;4.13;;;14.30;99.90;;;;;;5074613;28;20021;-66
2022/09/30 13:22:23;;;;;;;15.23;3.40;;;14.20;99.90;;;;;;5074783;28;20025;-66
2022/09/30 13:25:01;;;;;;;14.20;2.58;;;14.10;99.90;;;;;;5072822;28;20031;-66
2022/09/30 13:27:40;;;;;;;14.73;3.05;;;14.10;99.90;;;;;;5074181;28;20024;-66
2022/09/30 13:30:31;;;;;;;15.73;3.90;;;14.00;99.90;;;;;;5074252;28;20112;-66
2022/09/30 13:33:01;;;;;;;14.75;3.22;;;14.00;99.90;;;;;;5074264;28;20104;-66
2022/09/30 13:35:43;;;;;;;13.85;2.40;;;14.00;99.90;;;;;;5072773;28;20029;-66
2022/09/30 13:38:32;;;;;;;17.85;3.42;;;14.00;99.90;;;;;;5074183;28;20058;-67